Time;durP1;ratioP1;P1;durP2;ratioP2;P2;SDS_P1;SDS_P2;PMS_P1;PMS_P2;Temp;Humidity;BMP_temperature;BMP_pressure;BME280_temperature;BME280_humidity;BME280_pressure;Samples;Min_cycle;Max_cycle;Signal;HPM_P1;HPM_P2
2023/10/14 00:00:26;;;;;;;0.77;0.70;;;17.60;70.70;;;;;;6239783;23;20159;-86
2023/10/14 00:03:05;;;;;;;5.37;1.77;;;17.60;71.00;;;;;;6240150;23;20238;-84
2023/10/14 00:05:35;;;;;;;4.67;2.47;;;17.60;71.30;;;;;;6243813;23;20155;-85
2023/10/14 00:08:06;;;;;;;2.93;2.00;;;17.50;71.00;;;;;;6239926;23;20170;-86
2023/10/14 00:10:35;;;;;;;0.93;0.77;;;17.50;70.90;;;;;;6243048;23;20169;-84
2023/10/14 00:13:04;;;;;;;1.03;0.97;;;17.50;71.00;;;;;;6244509;23;20173;-86
2023/10/14 00:15:34;;;;;;;2.67;1.20;;;17.50;71.00;;;;;;6232138;23;20277;-86
2023/10/14 00:18:03;;;;;;;2.13;1.43;;;17.50;71.40;;;;;;6244929;23;20198;-87
2023/10/14 00:20:35;;;;;;;3.23;1.70;;;17.40;71.70;;;;;;6243567;23;20190;-85
2023/10/14 00:23:06;;;;;;;0.43;0.43;;;17.40;71.40;;;;;;6249331;23;20171;-85
2023/10/14 00:25:35;;;;;;;2.20;1.23;;;17.40;71.30;;;;;;6263775;23;20169;-85
2023/10/14 00:28:11;;;;;;;1.00;0.97;;;17.40;71.30;;;;;;6265587;23;20186;-87
2023/10/14 00:30:40;;;;;;;0.57;0.57;;;17.30;71.50;;;;;;6254774;23;20168;-88
2023/10/14 00:33:12;;;;;;;2.10;1.50;;;17.30;71.60;;;;;;6266211;22;20200;-87
2023/10/14 00:35:42;;;;;;;1.40;0.97;;;17.30;71.40;;;;;;6262796;22;20170;-87
2023/10/14 00:38:15;;;;;;;0.80;0.80;;;17.30;71.40;;;;;;6256988;22;20186;-85
2023/10/14 00:40:46;;;;;;;1.83;0.93;;;17.20;71.40;;;;;;6259939;22;20175;-85
2023/10/14 00:43:15;;;;;;;0.60;0.60;;;17.20;71.30;;;;;;6291866;22;20151;-85
2023/10/14 00:45:44;;;;;;;0.97;0.70;;;17.20;71.30;;;;;;6281135;22;20166;-87
2023/10/14 00:48:19;;;;;;;1.17;0.87;;;17.20;71.30;;;;;;6276216;22;20172;-88
2023/10/14 00:50:50;;;;;;;0.87;0.80;;;17.20;71.40;;;;;;6274245;22;20157;-84
2023/10/14 00:53:23;;;;;;;0.97;0.97;;;17.20;71.90;;;;;;6272467;22;20164;-86
2023/10/14 00:55:54;;;;;;;1.13;0.60;;;17.20;72.70;;;;;;6275012;22;20176;-85
2023/10/14 00:58:28;;;;;;;2.03;0.80;;;17.10;72.60;;;;;;6273564;22;20654;-85
2023/10/14 01:00:59;;;;;;;2.50;1.47;;;17.20;72.50;;;;;;6271499;22;20266;-86
2023/10/14 01:03:31;;;;;;;1.70;1.57;;;17.10;72.50;;;;;;6273175;22;20219;-86
2023/10/14 01:06:07;;;;;;;0.97;0.97;;;17.10;72.70;;;;;;6273583;22;20193;-85
2023/10/14 01:08:42;;;;;;;1.63;0.87;;;17.10;73.20;;;;;;6273646;22;20166;-88
2023/10/14 01:11:11;;;;;;;2.33;1.80;;;17.10;73.90;;;;;;6273035;22;20150;-84
2023/10/14 01:13:41;;;;;;;15.37;1.60;;;17.00;73.50;;;;;;6274783;22;20681;-87
2023/10/14 01:16:10;;;;;;;15.43;1.87;;;17.00;73.40;;;;;;6273876;22;20245;-86
2023/10/14 01:18:39;;;;;;;1.57;1.43;;;17.00;73.20;;;;;;6272577;22;20193;-87
2023/10/14 01:21:10;;;;;;;5.70;1.87;;;16.90;73.00;;;;;;6272513;22;20253;-86
2023/10/14 01:23:50;;;;;;;16.20;1.40;;;16.90;73.40;;;;;;6271362;22;20205;-86
2023/10/14 01:26:19;;;;;;;4.27;2.37;;;17.00;73.40;;;;;;6273644;22;20327;-84
2023/10/14 01:28:58;;;;;;;2.50;1.33;;;16.90;73.30;;;;;;6273351;22;20248;-85
2023/10/14 01:31:57;;;;;;;1.03;0.93;;;16.90;73.30;;;;;;6273309;22;20153;-86
2023/10/14 01:34:29;;;;;;;0.87;0.87;;;16.90;73.10;;;;;;6273484;22;20162;-85
2023/10/14 01:37:12;;;;;;;1.00;0.90;;;16.90;73.00;;;;;;6273841;22;20182;-85
2023/10/14 01:39:48;;;;;;;2.60;1.77;;;16.90;73.00;;;;;;6272168;22;20193;-86
2023/10/14 01:42:19;;;;;;;2.27;1.23;;;16.80;73.40;;;;;;6273639;22;20194;-85
2023/10/14 01:44:53;;;;;;;3.00;2.13;;;16.80;73.60;;;;;;6272972;22;20169;-85
2023/10/14 01:47:25;;;;;;;2.00;1.77;;;16.80;73.60;;;;;;6273369;22;20244;-86
2023/10/14 01:49:56;;;;;;;2.07;1.50;;;16.80;73.40;;;;;;6272084;22;20165;-85
2023/10/14 01:52:24;;;;;;;1.23;1.13;;;16.80;73.30;;;;;;6273815;22;20248;-86
2023/10/14 01:54:55;;;;;;;1.63;1.23;;;16.80;73.30;;;;;;6271103;22;20558;-86
2023/10/14 01:57:25;;;;;;;1.17;1.07;;;16.80;73.20;;;;;;6273828;22;20209;-86
2023/10/14 01:59:54;;;;;;;3.50;1.90;;;16.80;73.60;;;;;;6270281;22;20201;-88
2023/10/14 02:02:23;;;;;;;7.87;1.73;;;16.70;74.00;;;;;;6269960;22;20253;-87
2023/10/14 02:04:56;;;;;;;0.80;0.80;;;16.70;73.80;;;;;;6270332;22;20264;-86
2023/10/14 02:07:26;;;;;;;1.40;1.30;;;16.70;73.70;;;;;;6272351;22;20178;-88
2023/10/14 02:09:58;;;;;;;1.07;0.90;;;16.70;73.70;;;;;;6268883;22;20166;-86
2023/10/14 02:12:26;;;;;;;1.03;1.03;;;16.70;74.00;;;;;;6272377;22;20256;-86
2023/10/14 02:14:58;;;;;;;3.37;1.93;;;16.60;74.10;;;;;;6272598;22;20547;-85
2023/10/14 02:17:28;;;;;;;3.17;1.53;;;16.60;74.50;;;;;;6273396;22;20269;-86
2023/10/14 02:20:07;;;;;;;1.33;0.97;;;16.60;74.60;;;;;;6270007;22;20955;-85
2023/10/14 02:22:38;;;;;;;5.40;2.83;;;16.60;74.40;;;;;;6271580;22;20162;-87
2023/10/14 02:25:09;;;;;;;1.23;0.97;;;16.60;74.30;;;;;;6273238;22;20165;-86
2023/10/14 02:27:41;;;;;;;0.80;0.77;;;16.60;74.30;;;;;;6273482;22;20166;-87
2023/10/14 02:30:11;;;;;;;0.60;0.60;;;16.60;74.60;;;;;;6273187;22;20173;-87
2023/10/14 02:32:39;;;;;;;3.23;1.27;;;16.60;74.60;;;;;;6272351;22;20473;-85
2023/10/14 02:35:09;;;;;;;1.03;0.97;;;16.60;74.60;;;;;;6274410;22;20189;-88
2023/10/14 02:37:37;;;;;;;2.77;1.93;;;16.50;74.40;;;;;;6273627;22;20623;-88
2023/10/14 02:40:12;;;;;;;0.80;0.80;;;16.50;74.50;;;;;;6275233;22;20829;-87
2023/10/14 02:42:41;;;;;;;0.50;0.50;;;16.50;74.40;;;;;;6272982;22;20276;-89
2023/10/14 02:45:12;;;;;;;3.57;2.93;;;16.50;74.30;;;;;;6273716;22;20170;-88
2023/10/14 02:47:41;;;;;;;4.67;2.03;;;16.50;74.20;;;;;;6273416;22;20241;-86
2023/10/14 02:50:11;;;;;;;1.53;1.43;;;16.50;74.10;;;;;;6274002;22;20216;-86
2023/10/14 02:52:40;;;;;;;1.77;0.87;;;16.50;74.10;;;;;;6270436;22;20162;-86
2023/10/14 02:55:21;;;;;;;4.97;1.37;;;16.50;74.00;;;;;;6273656;22;20866;-86
2023/10/14 02:57:50;;;;;;;1.83;1.27;;;16.50;74.00;;;;;;6274069;22;20549;-86
2023/10/14 03:00:29;;;;;;;1.00;0.77;;;16.50;74.10;;;;;;6272313;22;20172;-86
2023/10/14 03:03:02;;;;;;;0.40;0.40;;;16.50;74.10;;;;;;6272410;22;20236;-87
2023/10/14 03:05:37;;;;;;;0.60;0.60;;;16.50;74.00;;;;;;6273573;22;20165;-87
2023/10/14 03:08:11;;;;;;;2.20;1.17;;;16.50;74.00;;;;;;6273475;22;20267;-87
2023/10/14 03:10:45;;;;;;;1.73;1.38;;;16.50;74.00;;;;;;6270778;22;20463;-89
2023/10/14 03:13:14;;;;;;;3.70;1.23;;;16.50;74.50;;;;;;6272536;22;20162;-88
2023/10/14 03:15:44;;;;;;;1.40;1.30;;;16.50;74.40;;;;;;6272702;22;20216;-88
2023/10/14 03:18:16;;;;;;;0.57;0.57;;;16.50;74.30;;;;;;6273244;22;20186;-87
2023/10/14 03:20:58;;;;;;;1.17;1.07;;;16.50;74.30;;;;;;6272749;22;20177;-88
2023/10/14 03:23:28;;;;;;;1.10;1.00;;;16.50;74.30;;;;;;6272177;22;20166;-87
2023/10/14 03:26:11;;;;;;;1.87;1.70;;;16.50;74.40;;;;;;6273845;22;20667;-88
2023/10/14 03:28:44;;;;;;;1.10;1.00;;;16.50;74.30;;;;;;6272277;22;20166;-88
2023/10/14 03:31:17;;;;;;;0.80;0.80;;;16.40;74.50;;;;;;6273665;22;20189;-88
2023/10/14 03:33:47;;;;;;;4.03;1.93;;;16.50;74.40;;;;;;6271193;22;20169;-87
2023/10/14 03:36:22;;;;;;;1.90;1.40;;;16.40;74.40;;;;;;6273736;22;20165;-89
2023/10/14 03:38:56;;;;;;;1.50;1.40;;;16.40;74.30;;;;;;6246894;22;20185;-87
2023/10/14 03:41:37;;;;;;;3.90;1.23;;;16.40;74.30;;;;;;6273321;22;20204;-88
2023/10/14 03:44:09;;;;;;;1.30;1.20;;;16.30;74.30;;;;;;6274277;22;20158;-88
2023/10/14 03:46:42;;;;;;;1.90;1.23;;;16.30;74.30;;;;;;6273033;22;20165;-86
2023/10/14 03:49:20;;;;;;;1.00;0.93;;;16.30;74.30;;;;;;6272422;22;20811;-87
2023/10/14 03:51:52;;;;;;;3.23;2.37;;;16.30;74.40;;;;;;6274607;22;20150;-87
2023/10/14 03:54:23;;;;;;;3.67;3.37;;;16.40;74.40;;;;;;6273212;22;20244;-87
2023/10/14 03:56:56;;;;;;;2.50;2.30;;;16.30;74.70;;;;;;6272711;22;20169;-87
2023/10/14 03:59:26;;;;;;;0.83;0.83;;;16.30;74.70;;;;;;6271755;22;20198;-86
2023/10/14 04:01:57;;;;;;;1.13;1.10;;;16.30;74.70;;;;;;6271147;22;20165;-86
2023/10/14 04:04:29;;;;;;;12.37;2.53;;;16.20;75.00;;;;;;6270311;22;20158;-89
2023/10/14 04:07:15;;;;;;;3.63;2.80;;;16.20;75.20;;;;;;6269864;22;20162;-87
2023/10/14 04:09:50;;;;;;;2.07;1.77;;;16.20;75.60;;;;;;6271384;22;20181;-88
2023/10/14 04:12:36;;;;;;;1.67;1.57;;;16.20;75.50;;;;;;6272462;22;20215;-87
2023/10/14 04:15:23;;;;;;;1.30;1.13;;;16.10;75.40;;;;;;6271275;22;20162;-90
2023/10/14 04:17:55;;;;;;;1.43;1.33;;;16.10;75.20;;;;;;6271206;22;20241;-88
2023/10/14 04:20:29;;;;;;;1.47;1.37;;;16.10;75.10;;;;;;6270058;22;20655;-86
2023/10/14 04:23:05;;;;;;;1.57;0.93;;;16.10;75.10;;;;;;6269558;22;20253;-86
2023/10/14 04:25:42;;;;;;;1.37;1.27;;;16.10;75.30;;;;;;6270428;22;20522;-87
2023/10/14 04:28:30;;;;;;;2.43;1.17;;;16.10;75.80;;;;;;6265552;22;20250;-86
2023/10/14 04:31:06;;;;;;;0.80;0.80;;;16.00;76.00;;;;;;6243086;22;20161;-87
2023/10/14 04:33:47;;;;;;;2.60;1.97;;;16.00;76.10;;;;;;6269143;22;20174;-88
2023/10/14 04:44:54;;;;;;;3.50;2.90;;;15.90;76.40;;;;;;6241131;22;20168;-86
2023/10/14 04:47:35;;;;;;;3.13;1.83;;;15.90;76.70;;;;;;6272687;22;20165;-89
2023/10/14 04:50:21;;;;;;;1.43;1.33;;;15.90;76.60;;;;;;6246496;22;20220;-87
2023/10/14 04:52:57;;;;;;;2.33;2.10;;;15.90;76.40;;;;;;6272750;22;20162;-87
2023/10/14 04:55:32;;;;;;;0.80;0.70;;;15.90;76.40;;;;;;6272153;22;20216;-87
2023/10/14 04:58:09;;;;;;;5.80;2.30;;;15.90;76.40;;;;;;6272076;22;20623;-86
2023/10/14 05:00:43;;;;;;;3.10;1.60;;;15.90;76.50;;;;;;6274318;22;20639;-87
2023/10/14 05:03:18;;;;;;;1.20;1.10;;;15.90;76.70;;;;;;6273962;22;20566;-88
2023/10/14 05:05:52;;;;;;;1.07;0.97;;;15.90;76.90;;;;;;6276202;22;20544;-87
2023/10/14 05:08:27;;;;;;;2.33;0.97;;;16.00;77.50;;;;;;6276129;22;20219;-86
2023/10/14 05:10:56;;;;;;;5.77;1.57;;;15.90;77.60;;;;;;6274845;22;20170;-88
2023/10/14 05:13:31;;;;;;;0.93;0.87;;;16.00;77.50;;;;;;6273191;22;20693;-89
2023/10/14 05:16:15;;;;;;;2.87;1.77;;;16.00;77.90;;;;;;6274289;22;20684;-85
2023/10/14 05:18:59;;;;;;;4.03;2.40;;;16.00;78.20;;;;;;6271425;22;20176;-87
2023/10/14 05:21:42;;;;;;;2.30;1.70;;;16.00;78.20;;;;;;6274833;22;20168;-89
2023/10/14 05:24:13;;;;;;;1.47;1.37;;;16.10;78.60;;;;;;6276479;22;20199;-89
2023/10/14 05:26:46;;;;;;;1.57;1.43;;;16.00;78.40;;;;;;6275786;22;20352;-86
2023/10/14 05:29:19;;;;;;;6.63;1.30;;;16.10;78.70;;;;;;6275596;22;20190;-87
2023/10/14 05:31:52;;;;;;;1.40;1.30;;;16.10;79.10;;;;;;6275386;22;20185;-86
2023/10/14 05:34:22;;;;;;;0.83;0.83;;;16.10;79.10;;;;;;6276111;22;20154;-90
2023/10/14 05:36:55;;;;;;;1.93;1.43;;;16.20;79.40;;;;;;6276763;22;20166;-88
2023/10/14 05:39:36;;;;;;;2.90;1.20;;;16.20;79.50;;;;;;6276377;22;20239;-86
2023/10/14 05:42:13;;;;;;;2.37;1.67;;;16.30;79.90;;;;;;6276408;22;20166;-87
2023/10/14 05:44:47;;;;;;;3.30;2.17;;;16.30;79.90;;;;;;6276089;22;20215;-88
2023/10/14 05:47:20;;;;;;;1.70;1.60;;;16.30;80.10;;;;;;6275433;22;20171;-87
2023/10/14 05:49:54;;;;;;;3.47;1.37;;;16.40;80.00;;;;;;6274701;22;20181;-89
2023/10/14 05:52:25;;;;;;;3.90;1.90;;;16.40;79.90;;;;;;6275868;22;20523;-87
2023/10/14 05:54:55;;;;;;;4.20;2.57;;;16.40;79.90;;;;;;6275529;22;20154;-87
2023/10/14 05:57:41;;;;;;;5.03;2.33;;;16.50;79.80;;;;;;6273902;22;20201;-88
2023/10/14 06:00:20;;;;;;;2.90;2.67;;;16.50;80.00;;;;;;6275159;22;20189;-89
2023/10/14 06:02:58;;;;;;;3.03;2.00;;;16.60;79.90;;;;;;6276284;22;20169;-88
2023/10/14 06:05:29;;;;;;;2.13;1.57;;;16.60;80.70;;;;;;6276574;22;20649;-90
2023/10/14 06:08:05;;;;;;;5.40;2.53;;;16.60;81.20;;;;;;6273325;22;20162;-90
2023/10/14 06:10:41;;;;;;;1.40;1.30;;;16.60;81.40;;;;;;6275045;22;20492;-88
2023/10/14 06:13:15;;;;;;;1.53;1.30;;;16.60;81.00;;;;;;6275611;22;20167;-87
2023/10/14 06:18:53;;;;;;;1.53;1.43;;;16.70;81.10;;;;;;6244079;23;20185;-89
2023/10/14 06:21:24;;;;;;;1.67;1.50;;;16.80;81.00;;;;;;6275850;22;20193;-88
2023/10/14 06:23:55;;;;;;;2.43;1.57;;;16.90;81.20;;;;;;6275569;22;20176;-89
2023/10/14 06:26:23;;;;;;;2.43;2.03;;;16.90;81.20;;;;;;6276917;22;20161;-88
2023/10/14 06:28:56;;;;;;;2.43;2.23;;;16.90;81.30;;;;;;6275821;22;20168;-90
2023/10/14 06:31:24;;;;;;;1.20;1.10;;;17.00;81.40;;;;;;6278585;22;20170;-87
2023/10/14 06:33:55;;;;;;;1.33;1.23;;;17.10;81.10;;;;;;6277515;22;20244;-87
2023/10/14 06:36:25;;;;;;;1.53;1.37;;;17.10;81.00;;;;;;6273749;22;20574;-88
2023/10/14 06:38:59;;;;;;;3.90;1.33;;;17.20;80.90;;;;;;6276846;22;20172;-87
2023/10/14 06:41:29;;;;;;;2.97;1.97;;;17.30;80.70;;;;;;6275951;22;20199;-88
2023/10/14 06:43:57;;;;;;;9.20;1.63;;;17.40;80.40;;;;;;6275835;22;20165;-88
2023/10/14 06:46:26;;;;;;;2.10;1.27;;;17.50;80.20;;;;;;6274328;22;20211;-86
2023/10/14 06:48:58;;;;;;;2.33;1.87;;;17.60;80.10;;;;;;6275302;22;20252;-88
2023/10/14 06:51:27;;;;;;;2.43;1.83;;;17.70;80.00;;;;;;6276103;22;20154;-87
2023/10/14 06:53:55;;;;;;;4.50;2.23;;;17.80;79.80;;;;;;6275452;22;20162;-87
2023/10/14 06:56:27;;;;;;;2.70;2.50;;;17.80;79.70;;;;;;6274179;22;20173;-86
2023/10/14 06:58:55;;;;;;;1.70;1.60;;;17.90;79.50;;;;;;6274484;22;20510;-86
2023/10/14 07:01:24;;;;;;;1.57;1.47;;;18.00;80.30;;;;;;6274008;22;20217;-89
2023/10/14 07:03:53;;;;;;;0.70;0.70;;;18.10;79.30;;;;;;6280256;22;20165;-88
2023/10/14 07:06:23;;;;;;;0.83;0.83;;;18.20;79.10;;;;;;6279442;22;20170;-87
2023/10/14 07:08:52;;;;;;;2.40;1.20;;;18.30;79.00;;;;;;6281230;22;20150;-87
2023/10/14 07:11:21;;;;;;;3.20;1.43;;;18.40;78.70;;;;;;6281340;22;20205;-85
2023/10/14 07:13:50;;;;;;;5.00;1.00;;;18.50;78.60;;;;;;6279722;22;20208;-85
2023/10/14 07:16:21;;;;;;;0.73;0.73;;;18.60;78.30;;;;;;6280367;22;20154;-87
2023/10/14 07:18:49;;;;;;;4.33;1.27;;;18.70;78.10;;;;;;6275560;22;20315;-85
2023/10/14 07:31:28;;;;;;;4.23;1.07;;;19.20;77.20;;;;;;6156653;23;20201;-87
2023/10/14 07:34:02;;;;;;;1.27;0.97;;;19.30;77.00;;;;;;6246257;23;20166;-85
2023/10/14 07:36:31;;;;;;;1.33;1.00;;;19.40;76.90;;;;;;6250167;22;20158;-87
2023/10/14 07:39:02;;;;;;;0.77;0.77;;;19.50;76.40;;;;;;6277593;22;20607;-87
2023/10/14 07:41:31;;;;;;;2.88;1.48;;;19.60;76.40;;;;;;6254227;22;20533;-86
2023/10/14 07:44:00;;;;;;;1.63;0.98;;;19.70;75.90;;;;;;6284916;22;20169;-88
2023/10/14 07:46:30;;;;;;;0.40;0.40;;;19.80;75.80;;;;;;6283022;22;20168;-84
2023/10/14 07:48:58;;;;;;;1.13;1.00;;;19.90;75.70;;;;;;6278697;22;20164;-85
2023/10/14 07:51:27;;;;;;;2.65;1.50;;;19.90;75.50;;;;;;6279356;22;20173;-87
2023/10/14 07:53:57;;;;;;;0.63;0.60;;;20.00;75.30;;;;;;6292095;22;20158;-86
2023/10/14 07:56:26;;;;;;;1.65;1.42;;;20.10;74.90;;;;;;6296227;22;20166;-85
2023/10/14 07:58:56;;;;;;;4.60;1.88;;;20.20;74.40;;;;;;6296427;22;20168;-88
2023/10/14 08:01:25;;;;;;;6.68;2.58;;;20.30;75.20;;;;;;6266493;22;20193;-84
2023/10/14 08:03:57;;;;;;;2.85;1.15;;;20.40;74.10;;;;;;6297400;22;20154;-86
2023/10/14 08:06:27;;;;;;;2.90;1.92;;;20.50;73.80;;;;;;6299899;22;20178;-88
2023/10/14 08:08:56;;;;;;;1.52;1.27;;;20.50;72.70;;;;;;6299176;22;20169;-86
2023/10/14 08:11:25;;;;;;;4.38;2.85;;;20.70;72.90;;;;;;6302982;22;20169;-88
2023/10/14 08:13:54;;;;;;;1.90;1.65;;;20.70;71.90;;;;;;6300097;22;20193;-87
2023/10/14 08:16:23;;;;;;;2.00;1.38;;;20.90;72.10;;;;;;6280282;22;20181;-87
2023/10/14 08:18:53;;;;;;;7.05;1.52;;;20.90;72.20;;;;;;6281627;22;20245;-89
2023/10/14 08:21:24;;;;;;;6.35;1.38;;;21.00;72.20;;;;;;6280223;22;20194;-88
2023/10/14 08:23:53;;;;;;;6.55;2.08;;;21.10;71.90;;;;;;6279296;22;20185;-86
2023/10/14 08:26:21;;;;;;;3.70;2.25;;;21.20;70.50;;;;;;6278269;22;20249;-88
2023/10/14 08:28:54;;;;;;;1.25;1.15;;;21.40;70.50;;;;;;6275261;22;20173;-88
2023/10/14 08:31:23;;;;;;;11.13;2.55;;;21.40;70.50;;;;;;6274175;22;20247;-87
2023/10/14 08:33:51;;;;;;;1.58;0.90;;;21.60;70.70;;;;;;6274774;22;20166;-87
2023/10/14 08:36:20;;;;;;;2.75;1.45;;;21.70;70.60;;;;;;6274773;22;20168;-86
2023/10/14 08:38:50;;;;;;;1.05;0.93;;;21.80;70.10;;;;;;6248314;22;20166;-85
2023/10/14 08:41:19;;;;;;;1.38;0.85;;;21.80;69.40;;;;;;6274578;22;20201;-85
2023/10/14 08:43:50;;;;;;;1.33;1.05;;;21.90;69.00;;;;;;6274791;22;20273;-84
2023/10/14 08:46:23;;;;;;;1.88;1.42;;;22.00;67.10;;;;;;6248768;22;20241;-89
2023/10/14 08:48:54;;;;;;;1.10;1.02;;;22.10;67.70;;;;;;6276131;22;20181;-87
2023/10/14 08:51:28;;;;;;;1.65;1.55;;;22.20;65.70;;;;;;6274533;22;20186;-82
2023/10/14 08:54:19;;;;;;;0.68;0.68;;;22.30;65.30;;;;;;6275335;22;20177;-85
2023/10/14 08:59:41;;;;;;;3.22;1.85;;;22.50;65.30;;;;;;6179337;23;20206;-87
2023/10/14 09:02:14;;;;;;;1.75;1.48;;;22.60;65.20;;;;;;6273997;22;20189;-88
2023/10/14 09:04:42;;;;;;;0.82;0.63;;;22.70;64.70;;;;;;6275661;22;20170;-91
2023/10/14 10:10:10;;;;;;;6.72;2.58;;;24.60;56.30;;;;;;6211985;22;20217;-87
2023/10/14 10:50:36;;;;;;;0.40;0.40;;;25.50;54.60;;;;;;6274717;22;20201;-91
2023/10/14 10:53:21;;;;;;;1.38;0.65;;;25.60;54.80;;;;;;6276209;22;20161;-88
2023/10/14 10:55:52;;;;;;;0.60;0.60;;;25.70;54.50;;;;;;6275000;22;20172;-90
2023/10/14 10:58:23;;;;;;;0.45;0.45;;;25.70;54.40;;;;;;6276585;22;20578;-88
2023/10/14 11:00:52;;;;;;;2.67;1.33;;;25.70;53.60;;;;;;6274533;22;20169;-89
2023/10/14 11:03:23;;;;;;;0.38;0.32;;;25.80;54.10;;;;;;6275541;22;20170;-90
2023/10/14 11:05:54;;;;;;;1.20;0.60;;;25.90;54.60;;;;;;6275639;22;20166;-88
2023/10/14 11:08:23;;;;;;;0.73;0.73;;;25.90;52.80;;;;;;6276136;22;20170;-88
2023/10/14 11:10:52;;;;;;;0.45;0.45;;;25.90;52.70;;;;;;6274416;22;20174;-88
2023/10/14 11:13:21;;;;;;;0.32;0.32;;;26.00;53.40;;;;;;6275366;22;20500;-89
2023/10/14 11:15:50;;;;;;;0.93;0.75;;;26.00;53.50;;;;;;6271301;22;20241;-89
2023/10/14 11:18:19;;;;;;;1.23;1.05;;;26.10;53.70;;;;;;6274396;22;20611;-87
2023/10/14 11:21:07;;;;;;;0.60;0.60;;;26.20;53.10;;;;;;6275741;22;20220;-89
2023/10/14 11:23:39;;;;;;;0.95;0.95;;;26.10;51.50;;;;;;6278248;22;20150;-92
2023/10/14 11:26:12;;;;;;;0.93;0.85;;;26.10;51.20;;;;;;6249236;22;20188;-87
2023/10/14 11:28:45;;;;;;;1.00;0.93;;;26.20;52.00;;;;;;6274081;22;20531;-88
2023/10/14 11:31:14;;;;;;;0.93;0.65;;;26.30;52.40;;;;;;6274620;22;20161;-87
2023/10/14 11:33:46;;;;;;;0.65;0.60;;;26.30;52.80;;;;;;6273959;22;20227;-89
2023/10/14 11:36:19;;;;;;;0.52;0.52;;;26.40;52.90;;;;;;6275713;22;20213;-91
2023/10/14 11:38:48;;;;;;;1.98;1.38;;;26.40;52.40;;;;;;6276211;22;20219;-90
2023/10/14 11:41:17;;;;;;;0.95;0.90;;;26.50;52.20;;;;;;6276474;22;20172;-90
2023/10/14 11:43:47;;;;;;;2.55;1.48;;;26.40;51.10;;;;;;6276102;22;20165;-90
2023/10/14 11:46:18;;;;;;;1.33;1.23;;;26.50;51.50;;;;;;6275115;22;20165;-89
2023/10/14 11:48:48;;;;;;;0.73;0.73;;;26.50;51.20;;;;;;6275043;22;20157;-89
2023/10/14 11:51:21;;;;;;;1.15;1.00;;;26.60;51.00;;;;;;6274499;22;20477;-88
2023/10/14 11:53:53;;;;;;;3.55;0.65;;;26.60;51.20;;;;;;6277811;22;20538;-90
2023/10/14 11:56:21;;;;;;;0.75;0.75;;;26.70;51.30;;;;;;6276191;22;20157;-88
2023/10/14 11:58:50;;;;;;;0.30;0.30;;;26.80;51.70;;;;;;6276663;22;20252;-88
2023/10/14 12:01:23;;;;;;;1.20;0.47;;;26.80;51.40;;;;;;6276273;22;20165;-89
2023/10/14 12:03:53;;;;;;;0.52;0.52;;;26.80;51.20;;;;;;6276686;22;20799;-90
2023/10/14 12:06:23;;;;;;;1.67;0.55;;;26.90;51.50;;;;;;6278076;22;20170;-93
2023/10/14 12:08:53;;;;;;;0.38;0.35;;;26.90;51.10;;;;;;6277970;22;20168;-89
2023/10/14 12:11:21;;;;;;;0.30;0.30;;;27.00;51.20;;;;;;6277886;22;20170;-91
2023/10/14 12:13:52;;;;;;;0.70;0.70;;;26.90;49.80;;;;;;6277144;22;20568;-89
2023/10/14 12:16:23;;;;;;;1.95;0.98;;;27.00;50.20;;;;;;6277187;22;20157;-91
2023/10/14 12:18:58;;;;;;;2.03;0.70;;;27.00;50.30;;;;;;6276892;22;20173;-88
2023/10/14 12:21:29;;;;;;;2.78;1.67;;;27.10;50.30;;;;;;6274975;22;20595;-87
2023/10/14 12:24:02;;;;;;;1.10;0.60;;;27.10;50.50;;;;;;6275188;22;20162;-90
2023/10/14 12:26:33;;;;;;;3.50;1.17;;;27.20;51.00;;;;;;6277410;22;20162;-90
2023/10/14 12:29:09;;;;;;;0.43;0.43;;;27.30;50.20;;;;;;6276734;22;20211;-89
2023/10/14 12:31:43;;;;;;;1.77;0.85;;;27.30;50.50;;;;;;6278285;22;20584;-91
2023/10/14 12:34:13;;;;;;;4.45;0.82;;;27.30;50.30;;;;;;6278030;22;20166;-91
2023/10/14 12:36:45;;;;;;;0.35;0.35;;;27.40;50.10;;;;;;6275750;22;20475;-94
2023/10/14 12:39:21;;;;;;;1.58;1.48;;;27.40;50.60;;;;;;6273516;22;20158;-86
2023/10/14 12:41:53;;;;;;;0.65;0.65;;;27.50;50.60;;;;;;6274062;22;20631;-89
2023/10/14 12:44:21;;;;;;;0.75;0.70;;;27.60;50.90;;;;;;6276983;22;20166;-88
2023/10/14 12:46:51;;;;;;;2.72;1.10;;;27.70;50.20;;;;;;6276680;22;20209;-89
2023/10/14 12:49:20;;;;;;;1.33;0.90;;;27.80;50.20;;;;;;6278419;22;20243;-91
2023/10/14 12:51:56;;;;;;;0.47;0.40;;;27.80;50.20;;;;;;6275785;22;20223;-89
2023/10/14 12:54:29;;;;;;;0.82;0.63;;;28.00;50.70;;;;;;6275415;22;20184;-88
2023/10/14 12:56:58;;;;;;;1.45;1.13;;;28.20;51.10;;;;;;6276135;22;20642;-87
2023/10/14 12:59:26;;;;;;;0.85;0.80;;;28.30;50.50;;;;;;6274494;22;20169;-87
2023/10/14 13:01:59;;;;;;;0.47;0.47;;;28.40;50.80;;;;;;6275487;22;20650;-88
2023/10/14 13:04:28;;;;;;;0.90;0.90;;;28.50;50.50;;;;;;6274589;22;20205;-88
2023/10/14 13:06:59;;;;;;;1.00;0.77;;;28.50;50.40;;;;;;6275256;22;20185;-88
2023/10/14 13:09:28;;;;;;;4.97;0.63;;;28.60;50.10;;;;;;6273420;22;20216;-87
2023/10/14 13:12:01;;;;;;;0.30;0.30;;;28.60;49.20;;;;;;6247790;22;20158;-86
2023/10/14 13:14:30;;;;;;;0.65;0.50;;;28.50;48.80;;;;;;6275214;22;20166;-87
2023/10/14 13:17:02;;;;;;;0.77;0.77;;;28.50;48.60;;;;;;6277858;22;20610;-92
2023/10/14 13:19:34;;;;;;;1.23;1.10;;;28.40;48.50;;;;;;6278563;22;20211;-87
2023/10/14 13:22:12;;;;;;;0.40;0.40;;;28.40;48.00;;;;;;6250199;22;20261;-87
2023/10/14 13:24:49;;;;;;;4.30;0.68;;;28.30;48.20;;;;;;6274742;22;20165;-89
2023/10/14 13:27:19;;;;;;;2.78;1.13;;;28.30;48.50;;;;;;6277607;22;20162;-87
2023/10/14 13:29:52;;;;;;;0.88;0.88;;;28.20;47.80;;;;;;6274397;22;20165;-88
2023/10/14 13:32:26;;;;;;;0.45;0.30;;;28.30;48.30;;;;;;6248966;22;20158;-88
2023/10/14 13:41:51;;;;;;;0.82;0.77;;;28.20;48.40;;;;;;6252822;22;20232;-84
2023/10/14 13:45:40;;;;;;;;;;;;;;;;;;;;;
2023/10/14 13:54:32;;;;;;;;;;;;;;;;;;;;;
2023/10/14 14:08:51;;;;;;;0.75;0.63;;;27.90;47.30;;;;;;6240991;22;20204;-88
2023/10/14 14:15:07;;;;;;;0.30;0.30;;;27.80;48.00;;;;;;6246249;22;20496;-87
2023/10/14 14:17:38;;;;;;;0.35;0.35;;;27.80;48.30;;;;;;6271170;22;20220;-90
2023/10/14 14:20:10;;;;;;;0.55;0.47;;;27.70;48.30;;;;;;6274979;22;20169;-89
2023/10/14 14:22:44;;;;;;;0.40;0.40;;;27.80;48.50;;;;;;6247014;22;20190;-90
2023/10/14 14:25:21;;;;;;;11.70;0.65;;;27.70;48.70;;;;;;6272097;22;20184;-90
2023/10/14 14:30:51;;;;;;;4.25;1.42;;;27.60;49.20;;;;;;6267529;22;20169;-89
2023/10/14 14:33:20;;;;;;;2.50;1.55;;;27.60;48.50;;;;;;6272969;22;20176;-87
2023/10/14 14:35:58;;;;;;;1.05;0.73;;;27.60;48.70;;;;;;6270601;22;20486;-88
2023/10/14 14:38:43;;;;;;;1.88;1.00;;;27.50;48.80;;;;;;6271126;22;20216;-88
2023/10/14 15:07:25;;;;;;;2.35;1.48;;;26.80;49.70;;;;;;6269858;22;20189;-87
2023/10/14 15:09:58;;;;;;;0.70;0.68;;;26.80;49.80;;;;;;6271592;22;20180;-87
2023/10/14 15:12:33;;;;;;;1.33;1.23;;;26.70;49.90;;;;;;6267813;22;20501;-89
2023/10/14 15:15:06;;;;;;;4.25;2.13;;;26.60;49.90;;;;;;6271425;22;20690;-87
2023/10/14 15:17:35;;;;;;;3.30;1.20;;;26.60;50.10;;;;;;6270439;22;20517;-88
2023/10/14 15:20:05;;;;;;;0.95;0.90;;;26.50;50.20;;;;;;6270260;22;20830;-87
2023/10/14 15:22:35;;;;;;;1.48;1.00;;;26.40;50.30;;;;;;6271479;22;20244;-87
2023/10/14 15:25:11;;;;;;;5.70;1.95;;;26.40;50.30;;;;;;6272400;22;20244;-88
2023/10/14 15:27:42;;;;;;;1.38;1.27;;;26.30;50.30;;;;;;6272370;22;20195;-87
2023/10/14 16:31:03;;;;;;;1.30;1.20;;;24.10;52.60;;;;;;6228874;22;20206;-89
2023/10/14 16:36:16;;;;;;;4.80;2.30;;;23.90;52.80;;;;;;6216937;22;20643;-88
2023/10/14 16:38:49;;;;;;;3.10;2.22;;;23.80;53.00;;;;;;6276146;22;20166;-89
2023/10/14 16:41:21;;;;;;;3.92;2.50;;;23.80;53.20;;;;;;6249560;22;20893;-87
2023/10/14 16:43:52;;;;;;;2.10;1.40;;;23.70;53.30;;;;;;6276820;22;20276;-88
2023/10/14 16:46:25;;;;;;;1.50;1.40;;;23.60;53.40;;;;;;6276776;22;20216;-89
2023/10/14 16:48:56;;;;;;;2.10;1.15;;;23.60;53.60;;;;;;6276735;22;20241;-88
2023/10/14 16:51:28;;;;;;;7.43;3.03;;;23.50;53.70;;;;;;6250251;22;20170;-85
2023/10/14 16:53:57;;;;;;;3.85;2.47;;;23.40;53.80;;;;;;6275022;22;20165;-87
2023/10/14 16:56:32;;;;;;;3.10;1.90;;;23.30;53.90;;;;;;6275258;22;20166;-87
2023/10/14 16:59:02;;;;;;;3.90;2.75;;;23.30;54.00;;;;;;6275734;22;20519;-89
2023/10/14 17:01:36;;;;;;;6.57;4.95;;;23.20;54.20;;;;;;6275429;22;20168;-89
2023/10/14 17:04:07;;;;;;;4.28;3.33;;;23.20;54.30;;;;;;6273966;22;20246;-89
2023/10/14 17:06:36;;;;;;;7.22;2.88;;;23.10;54.40;;;;;;6274158;22;20166;-88
2023/10/14 17:09:10;;;;;;;7.47;3.92;;;23.00;54.50;;;;;;6275329;22;20340;-90
2023/10/14 17:11:40;;;;;;;15.18;6.18;;;23.00;54.70;;;;;;6274975;22;20168;-89
2023/10/14 17:14:10;;;;;;;8.35;5.90;;;22.90;54.80;;;;;;6274843;22;20253;-89
2023/10/14 17:16:44;;;;;;;8.00;4.70;;;22.80;54.90;;;;;;6274078;22;20182;-88
2023/10/14 17:19:21;;;;;;;10.65;6.47;;;22.80;55.00;;;;;;6273597;22;20165;-90
2023/10/14 17:21:54;;;;;;;9.15;6.10;;;22.70;55.10;;;;;;6273487;22;20836;-89